sensor_id;sensor_type;location;lat;lon;timestamp;P1;durP1;ratioP1;P2;durP2;ratioP2
76320;SDS011;65132;52.088;5.402;2023-05-07T00:00:06;12.93;;;9.73;;
76320;SDS011;65132;52.088;5.402;2023-05-07T00:02:33;14.15;;;9.52;;
76320;SDS011;65132;52.088;5.402;2023-05-07T00:04:59;13.63;;;8.77;;
76320;SDS011;65132;52.088;5.402;2023-05-07T00:07:25;11.13;;;9.27;;
76320;SDS011;65132;52.088;5.402;2023-05-07T00:09:54;11.45;;;8.82;;
76320;SDS011;65132;52.088;5.402;2023-05-07T00:12:24;11.00;;;8.75;;
76320;SDS011;65132;52.088;5.402;2023-05-07T00:14:57;10.63;;;8.30;;
76320;SDS011;65132;52.088;5.402;2023-05-07T00:17:23;10.57;;;8.18;;
76320;SDS011;65132;52.088;5.402;2023-05-07T00:19:57;12.73;;;7.82;;
76320;SDS011;65132;52.088;5.402;2023-05-07T00:22:23;11.93;;;9.15;;
76320;SDS011;65132;52.088;5.402;2023-05-07T00:24:52;12.35;;;7.50;;
76320;SDS011;65132;52.088;5.402;2023-05-07T00:27:19;12.68;;;9.57;;
76320;SDS011;65132;52.088;5.402;2023-05-07T00:29:45;13.82;;;8.43;;
76320;SDS011;65132;52.088;5.402;2023-05-07T00:32:12;11.85;;;9.07;;
76320;SDS011;65132;52.088;5.402;2023-05-07T00:34:38;12.60;;;9.00;;
76320;SDS011;65132;52.088;5.402;2023-05-07T00:37:05;12.73;;;9.38;;
76320;SDS011;65132;52.088;5.402;2023-05-07T00:39:37;10.48;;;8.45;;
76320;SDS011;65132;52.088;5.402;2023-05-07T00:42:03;12.90;;;9.20;;
76320;SDS011;65132;52.088;5.402;2023-05-07T00:44:30;12.00;;;8.45;;
76320;SDS011;65132;52.088;5.402;2023-05-07T00:46:56;13.93;;;8.85;;
76320;SDS011;65132;52.088;5.402;2023-05-07T00:49:25;11.70;;;8.85;;
76320;SDS011;65132;52.088;5.402;2023-05-07T00:51:58;12.52;;;8.75;;
76320;SDS011;65132;52.088;5.402;2023-05-07T00:54:27;13.50;;;9.27;;
76320;SDS011;65132;52.088;5.402;2023-05-07T00:56:58;11.50;;;8.70;;
76320;SDS011;65132;52.088;5.402;2023-05-07T00:59:30;13.38;;;9.10;;
76320;SDS011;65132;52.088;5.402;2023-05-07T01:02:00;13.68;;;10.10;;
76320;SDS011;65132;52.088;5.402;2023-05-07T01:04:28;11.15;;;9.02;;
76320;SDS011;65132;52.088;5.402;2023-05-07T01:06:57;13.77;;;9.80;;
76320;SDS011;65132;52.088;5.402;2023-05-07T01:09:30;11.13;;;7.53;;
76320;SDS011;65132;52.088;5.402;2023-05-07T01:11:56;10.50;;;7.57;;
76320;SDS011;65132;52.088;5.402;2023-05-07T01:14:32;11.98;;;8.80;;
76320;SDS011;65132;52.088;5.402;2023-05-07T01:17:06;12.55;;;9.70;;
76320;SDS011;65132;52.088;5.402;2023-05-07T01:19:33;13.98;;;9.60;;
76320;SDS011;65132;52.088;5.402;2023-05-07T01:22:04;12.75;;;8.75;;
76320;SDS011;65132;52.088;5.402;2023-05-07T01:24:32;10.43;;;7.15;;
76320;SDS011;65132;52.088;5.402;2023-05-07T01:27:00;13.25;;;9.85;;
76320;SDS011;65132;52.088;5.402;2023-05-07T01:29:29;11.10;;;7.45;;
76320;SDS011;65132;52.088;5.402;2023-05-07T01:32:03;12.82;;;9.90;;
76320;SDS011;65132;52.088;5.402;2023-05-07T01:34:32;11.57;;;8.13;;
76320;SDS011;65132;52.088;5.402;2023-05-07T01:36:59;11.80;;;8.43;;
76320;SDS011;65132;52.088;5.402;2023-05-07T01:39:29;11.35;;;9.23;;
76320;SDS011;65132;52.088;5.402;2023-05-07T01:41:56;10.52;;;8.13;;
76320;SDS011;65132;52.088;5.402;2023-05-07T01:44:22;11.23;;;7.53;;
76320;SDS011;65132;52.088;5.402;2023-05-07T01:46:49;11.40;;;8.32;;
76320;SDS011;65132;52.088;5.402;2023-05-07T01:49:16;13.80;;;8.68;;
76320;SDS011;65132;52.088;5.402;2023-05-07T01:51:45;12.82;;;9.68;;
76320;SDS011;65132;52.088;5.402;2023-05-07T01:54:12;15.57;;;10.90;;
76320;SDS011;65132;52.088;5.402;2023-05-07T01:56:42;12.30;;;8.50;;
76320;SDS011;65132;52.088;5.402;2023-05-07T01:59:11;13.43;;;8.95;;
76320;SDS011;65132;52.088;5.402;2023-05-07T02:01:41;12.77;;;8.68;;
76320;SDS011;65132;52.088;5.402;2023-05-07T02:04:07;15.90;;;10.43;;
76320;SDS011;65132;52.088;5.402;2023-05-07T02:06:35;11.48;;;8.00;;
76320;SDS011;65132;52.088;5.402;2023-05-07T02:09:01;15.10;;;10.05;;
76320;SDS011;65132;52.088;5.402;2023-05-07T02:11:28;15.02;;;10.00;;
76320;SDS011;65132;52.088;5.402;2023-05-07T02:13:58;12.30;;;8.18;;
76320;SDS011;65132;52.088;5.402;2023-05-07T02:16:26;13.40;;;10.00;;
76320;SDS011;65132;52.088;5.402;2023-05-07T02:18:53;14.45;;;10.38;;
76320;SDS011;65132;52.088;5.402;2023-05-07T02:21:19;12.80;;;9.18;;
76320;SDS011;65132;52.088;5.402;2023-05-07T02:23:48;13.95;;;9.18;;
76320;SDS011;65132;52.088;5.402;2023-05-07T02:26:18;13.55;;;9.50;;
76320;SDS011;65132;52.088;5.402;2023-05-07T02:28:45;11.90;;;8.80;;
76320;SDS011;65132;52.088;5.402;2023-05-07T02:31:11;13.32;;;9.38;;
76320;SDS011;65132;52.088;5.402;2023-05-07T02:33:37;12.50;;;8.85;;
76320;SDS011;65132;52.088;5.402;2023-05-07T02:36:07;12.60;;;8.43;;
76320;SDS011;65132;52.088;5.402;2023-05-07T02:38:34;11.80;;;8.70;;
76320;SDS011;65132;52.088;5.402;2023-05-07T02:41:00;13.88;;;9.38;;
76320;SDS011;65132;52.088;5.402;2023-05-07T02:43:28;12.23;;;8.70;;
76320;SDS011;65132;52.088;5.402;2023-05-07T02:46:02;11.80;;;8.73;;
76320;SDS011;65132;52.088;5.402;2023-05-07T02:48:28;12.07;;;9.05;;
76320;SDS011;65132;52.088;5.402;2023-05-07T02:50:54;15.18;;;9.85;;
76320;SDS011;65132;52.088;5.402;2023-05-07T02:53:25;11.82;;;9.40;;
76320;SDS011;65132;52.088;5.402;2023-05-07T02:55:55;14.50;;;9.80;;
76320;SDS011;65132;52.088;5.402;2023-05-07T02:58:24;13.30;;;9.85;;
76320;SDS011;65132;52.088;5.402;2023-05-07T03:00:51;14.60;;;10.10;;
76320;SDS011;65132;52.088;5.402;2023-05-07T03:03:17;14.05;;;10.15;;
76320;SDS011;65132;52.088;5.402;2023-05-07T03:05:45;15.05;;;9.85;;
76320;SDS011;65132;52.088;5.402;2023-05-07T03:08:11;13.10;;;10.38;;
76320;SDS011;65132;52.088;5.402;2023-05-07T03:10:37;15.45;;;10.85;;
76320;SDS011;65132;52.088;5.402;2023-05-07T03:13:04;14.38;;;9.30;;
76320;SDS011;65132;52.088;5.402;2023-05-07T03:15:30;13.23;;;10.25;;
76320;SDS011;65132;52.088;5.402;2023-05-07T03:17:57;14.43;;;10.02;;
76320;SDS011;65132;52.088;5.402;2023-05-07T03:20:23;12.20;;;9.60;;
76320;SDS011;65132;52.088;5.402;2023-05-07T03:22:49;11.75;;;9.55;;
76320;SDS011;65132;52.088;5.402;2023-05-07T03:25:18;13.13;;;9.45;;
76320;SDS011;65132;52.088;5.402;2023-05-07T03:27:44;11.82;;;8.88;;
76320;SDS011;65132;52.088;5.402;2023-05-07T03:30:13;14.75;;;9.48;;
76320;SDS011;65132;52.088;5.402;2023-05-07T03:32:40;13.23;;;9.32;;
76320;SDS011;65132;52.088;5.402;2023-05-07T03:35:11;14.07;;;10.20;;
76320;SDS011;65132;52.088;5.402;2023-05-07T03:37:37;13.68;;;9.70;;
76320;SDS011;65132;52.088;5.402;2023-05-07T03:40:04;14.02;;;10.05;;
76320;SDS011;65132;52.088;5.402;2023-05-07T03:42:33;13.88;;;9.48;;
76320;SDS011;65132;52.088;5.402;2023-05-07T03:44:59;14.07;;;10.02;;
76320;SDS011;65132;52.088;5.402;2023-05-07T03:49:58;11.20;;;7.57;;
76320;SDS011;65132;52.088;5.402;2023-05-07T03:52:31;13.13;;;9.38;;
76320;SDS011;65132;52.088;5.402;2023-05-07T03:55:00;11.38;;;9.25;;
76320;SDS011;65132;52.088;5.402;2023-05-07T03:57:31;12.90;;;9.82;;
76320;SDS011;65132;52.088;5.402;2023-05-07T03:59:57;11.63;;;9.55;;
76320;SDS011;65132;52.088;5.402;2023-05-07T04:02:32;13.13;;;9.18;;
76320;SDS011;65132;52.088;5.402;2023-05-07T04:04:59;13.82;;;10.43;;
76320;SDS011;65132;52.088;5.402;2023-05-07T04:07:25;13.10;;;10.15;;
76320;SDS011;65132;52.088;5.402;2023-05-07T04:09:52;14.75;;;10.13;;
76320;SDS011;65132;52.088;5.402;2023-05-07T04:12:18;13.23;;;9.68;;
76320;SDS011;65132;52.088;5.402;2023-05-07T04:14:44;15.07;;;10.73;;
76320;SDS011;65132;52.088;5.402;2023-05-07T04:17:14;15.65;;;10.05;;
76320;SDS011;65132;52.088;5.402;2023-05-07T04:19:40;14.05;;;8.90;;
76320;SDS011;65132;52.088;5.402;2023-05-07T04:22:09;12.30;;;7.80;;
76320;SDS011;65132;52.088;5.402;2023-05-07T04:24:38;11.43;;;8.43;;
76320;SDS011;65132;52.088;5.402;2023-05-07T04:27:04;11.30;;;8.93;;
76320;SDS011;65132;52.088;5.402;2023-05-07T04:29:30;12.05;;;9.20;;
76320;SDS011;65132;52.088;5.402;2023-05-07T04:31:57;15.07;;;10.30;;
76320;SDS011;65132;52.088;5.402;2023-05-07T04:34:23;18.25;;;11.48;;
76320;SDS011;65132;52.088;5.402;2023-05-07T04:36:51;14.60;;;9.93;;
76320;SDS011;65132;52.088;5.402;2023-05-07T04:39:18;13.82;;;9.73;;
76320;SDS011;65132;52.088;5.402;2023-05-07T04:41:44;15.93;;;10.75;;
76320;SDS011;65132;52.088;5.402;2023-05-07T04:44:11;17.67;;;12.25;;
76320;SDS011;65132;52.088;5.402;2023-05-07T04:46:37;14.80;;;9.60;;
76320;SDS011;65132;52.088;5.402;2023-05-07T04:49:03;14.35;;;9.95;;
76320;SDS011;65132;52.088;5.402;2023-05-07T04:51:29;15.07;;;10.70;;
76320;SDS011;65132;52.088;5.402;2023-05-07T04:53:56;15.93;;;10.70;;
76320;SDS011;65132;52.088;5.402;2023-05-07T04:56:22;17.23;;;10.68;;
76320;SDS011;65132;52.088;5.402;2023-05-07T04:58:48;14.60;;;9.55;;
76320;SDS011;65132;52.088;5.402;2023-05-07T05:01:17;14.13;;;10.63;;
76320;SDS011;65132;52.088;5.402;2023-05-07T05:03:47;15.25;;;11.07;;
76320;SDS011;65132;52.088;5.402;2023-05-07T05:06:13;15.82;;;9.77;;
76320;SDS011;65132;52.088;5.402;2023-05-07T05:08:40;20.30;;;12.00;;
76320;SDS011;65132;52.088;5.402;2023-05-07T05:11:06;17.70;;;11.55;;
76320;SDS011;65132;52.088;5.402;2023-05-07T05:13:32;18.83;;;11.77;;
76320;SDS011;65132;52.088;5.402;2023-05-07T05:15:58;20.00;;;12.00;;
76320;SDS011;65132;52.088;5.402;2023-05-07T05:18:26;16.90;;;11.35;;
76320;SDS011;65132;52.088;5.402;2023-05-07T05:20:58;16.70;;;11.23;;
76320;SDS011;65132;52.088;5.402;2023-05-07T05:23:25;16.25;;;10.73;;
76320;SDS011;65132;52.088;5.402;2023-05-07T05:25:55;17.63;;;10.60;;
76320;SDS011;65132;52.088;5.402;2023-05-07T05:28:25;15.65;;;11.10;;
76320;SDS011;65132;52.088;5.402;2023-05-07T05:30:53;17.45;;;11.57;;
76320;SDS011;65132;52.088;5.402;2023-05-07T05:33:21;18.73;;;12.95;;
76320;SDS011;65132;52.088;5.402;2023-05-07T05:36:03;16.63;;;10.75;;
76320;SDS011;65132;52.088;5.402;2023-05-07T05:38:30;18.73;;;10.98;;
76320;SDS011;65132;52.088;5.402;2023-05-07T05:40:56;17.98;;;11.48;;
76320;SDS011;65132;52.088;5.402;2023-05-07T05:43:22;16.92;;;10.48;;
76320;SDS011;65132;52.088;5.402;2023-05-07T05:45:48;14.32;;;10.18;;
76320;SDS011;65132;52.088;5.402;2023-05-07T05:48:20;16.08;;;9.43;;
76320;SDS011;65132;52.088;5.402;2023-05-07T05:50:46;18.52;;;11.07;;
76320;SDS011;65132;52.088;5.402;2023-05-07T05:53:15;15.85;;;10.27;;
76320;SDS011;65132;52.088;5.402;2023-05-07T05:55:44;17.63;;;10.57;;
76320;SDS011;65132;52.088;5.402;2023-05-07T05:58:11;18.25;;;10.52;;
76320;SDS011;65132;52.088;5.402;2023-05-07T06:00:38;15.65;;;10.43;;
76320;SDS011;65132;52.088;5.402;2023-05-07T06:03:07;15.13;;;10.52;;
76320;SDS011;65132;52.088;5.402;2023-05-07T06:05:34;17.98;;;11.15;;
76320;SDS011;65132;52.088;5.402;2023-05-07T06:08:00;17.02;;;10.38;;
76320;SDS011;65132;52.088;5.402;2023-05-07T06:10:27;16.70;;;10.88;;
76320;SDS011;65132;52.088;5.402;2023-05-07T06:12:53;19.50;;;11.23;;
76320;SDS011;65132;52.088;5.402;2023-05-07T06:15:20;16.70;;;10.15;;
76320;SDS011;65132;52.088;5.402;2023-05-07T06:17:46;17.02;;;9.65;;
76320;SDS011;65132;52.088;5.402;2023-05-07T06:20:12;18.40;;;11.38;;
76320;SDS011;65132;52.088;5.402;2023-05-07T06:22:39;18.73;;;10.77;;
76320;SDS011;65132;52.088;5.402;2023-05-07T06:25:05;18.85;;;12.02;;
76320;SDS011;65132;52.088;5.402;2023-05-07T06:27:34;19.48;;;12.30;;
76320;SDS011;65132;52.088;5.402;2023-05-07T06:30:00;19.63;;;11.95;;
76320;SDS011;65132;52.088;5.402;2023-05-07T06:32:31;18.38;;;11.93;;
76320;SDS011;65132;52.088;5.402;2023-05-07T06:34:57;18.83;;;10.77;;
76320;SDS011;65132;52.088;5.402;2023-05-07T06:37:23;21.52;;;12.23;;
76320;SDS011;65132;52.088;5.402;2023-05-07T06:39:52;18.60;;;11.10;;
76320;SDS011;65132;52.088;5.402;2023-05-07T06:42:20;21.58;;;13.05;;
76320;SDS011;65132;52.088;5.402;2023-05-07T06:44:47;19.38;;;11.23;;
76320;SDS011;65132;52.088;5.402;2023-05-07T06:47:14;20.38;;;13.38;;
76320;SDS011;65132;52.088;5.402;2023-05-07T06:49:41;19.30;;;12.75;;
76320;SDS011;65132;52.088;5.402;2023-05-07T06:52:08;21.00;;;13.57;;
76320;SDS011;65132;52.088;5.402;2023-05-07T06:54:34;21.83;;;12.18;;
76320;SDS011;65132;52.088;5.402;2023-05-07T06:57:00;22.98;;;13.20;;
76320;SDS011;65132;52.088;5.402;2023-05-07T06:59:26;22.15;;;13.20;;
76320;SDS011;65132;52.088;5.402;2023-05-07T07:01:57;19.33;;;11.98;;
76320;SDS011;65132;52.088;5.402;2023-05-07T07:04:24;21.50;;;12.93;;
76320;SDS011;65132;52.088;5.402;2023-05-07T07:06:53;20.55;;;12.02;;
76320;SDS011;65132;52.088;5.402;2023-05-07T07:09:22;21.45;;;13.35;;
76320;SDS011;65132;52.088;5.402;2023-05-07T07:11:52;22.85;;;13.65;;
76320;SDS011;65132;52.088;5.402;2023-05-07T07:14:18;20.50;;;11.85;;
76320;SDS011;65132;52.088;5.402;2023-05-07T07:16:45;21.60;;;12.05;;
76320;SDS011;65132;52.088;5.402;2023-05-07T07:19:12;19.90;;;11.98;;
76320;SDS011;65132;52.088;5.402;2023-05-07T07:21:38;20.55;;;12.90;;
76320;SDS011;65132;52.088;5.402;2023-05-07T07:24:07;19.60;;;13.35;;
76320;SDS011;65132;52.088;5.402;2023-05-07T07:26:33;17.85;;;11.02;;
76320;SDS011;65132;52.088;5.402;2023-05-07T07:29:00;19.08;;;12.43;;
76320;SDS011;65132;52.088;5.402;2023-05-07T07:31:27;18.13;;;11.10;;
76320;SDS011;65132;52.088;5.402;2023-05-07T07:33:55;18.67;;;11.55;;
76320;SDS011;65132;52.088;5.402;2023-05-07T07:36:21;22.80;;;12.30;;
76320;SDS011;65132;52.088;5.402;2023-05-07T07:38:54;20.08;;;12.60;;
76320;SDS011;65132;52.088;5.402;2023-05-07T07:41:20;16.45;;;10.73;;
76320;SDS011;65132;52.088;5.402;2023-05-07T07:43:56;18.52;;;11.10;;
76320;SDS011;65132;52.088;5.402;2023-05-07T07:46:23;18.13;;;11.50;;
76320;SDS011;65132;52.088;5.402;2023-05-07T07:48:49;18.17;;;11.00;;
76320;SDS011;65132;52.088;5.402;2023-05-07T07:51:15;20.08;;;10.98;;
76320;SDS011;65132;52.088;5.402;2023-05-07T07:53:42;15.90;;;10.18;;
76320;SDS011;65132;52.088;5.402;2023-05-07T07:56:08;18.48;;;10.80;;
76320;SDS011;65132;52.088;5.402;2023-05-07T07:58:34;15.07;;;10.10;;
76320;SDS011;65132;52.088;5.402;2023-05-07T08:01:00;15.85;;;10.07;;
76320;SDS011;65132;52.088;5.402;2023-05-07T08:03:29;17.42;;;9.68;;
76320;SDS011;65132;52.088;5.402;2023-05-07T08:05:56;19.80;;;10.93;;
76320;SDS011;65132;52.088;5.402;2023-05-07T08:08:23;17.33;;;10.45;;
76320;SDS011;65132;52.088;5.402;2023-05-07T08:10:58;16.92;;;10.32;;
76320;SDS011;65132;52.088;5.402;2023-05-07T08:13:24;17.38;;;11.13;;
76320;SDS011;65132;52.088;5.402;2023-05-07T08:15:52;18.45;;;10.82;;
76320;SDS011;65132;52.088;5.402;2023-05-07T08:18:23;18.35;;;10.80;;
76320;SDS011;65132;52.088;5.402;2023-05-07T08:20:49;17.08;;;10.73;;
76320;SDS011;65132;52.088;5.402;2023-05-07T08:23:15;16.58;;;10.90;;
76320;SDS011;65132;52.088;5.402;2023-05-07T08:25:45;18.85;;;11.05;;
76320;SDS011;65132;52.088;5.402;2023-05-07T08:28:11;23.92;;;13.57;;
76320;SDS011;65132;52.088;5.402;2023-05-07T08:30:38;20.00;;;12.85;;
76320;SDS011;65132;52.088;5.402;2023-05-07T08:33:04;21.58;;;12.48;;
76320;SDS011;65132;52.088;5.402;2023-05-07T08:35:33;21.20;;;12.30;;
76320;SDS011;65132;52.088;5.402;2023-05-07T08:38:00;17.55;;;11.85;;
76320;SDS011;65132;52.088;5.402;2023-05-07T08:40:29;18.65;;;11.52;;
76320;SDS011;65132;52.088;5.402;2023-05-07T08:42:58;22.65;;;11.68;;
76320;SDS011;65132;52.088;5.402;2023-05-07T08:45:29;19.85;;;11.82;;
76320;SDS011;65132;52.088;5.402;2023-05-07T08:48:00;18.50;;;12.52;;
76320;SDS011;65132;52.088;5.402;2023-05-07T08:50:35;19.48;;;11.73;;
76320;SDS011;65132;52.088;5.402;2023-05-07T08:53:02;18.80;;;13.13;;
76320;SDS011;65132;52.088;5.402;2023-05-07T08:55:29;22.08;;;12.73;;
76320;SDS011;65132;52.088;5.402;2023-05-07T08:57:55;23.60;;;13.82;;
76320;SDS011;65132;52.088;5.402;2023-05-07T09:00:21;17.23;;;11.48;;
76320;SDS011;65132;52.088;5.402;2023-05-07T09:02:48;18.45;;;10.25;;
76320;SDS011;65132;52.088;5.402;2023-05-07T09:05:19;15.88;;;9.90;;
76320;SDS011;65132;52.088;5.402;2023-05-07T09:07:45;16.00;;;10.18;;
76320;SDS011;65132;52.088;5.402;2023-05-07T09:10:20;16.92;;;10.85;;
76320;SDS011;65132;52.088;5.402;2023-05-07T09:12:46;19.42;;;11.75;;
76320;SDS011;65132;52.088;5.402;2023-05-07T09:15:13;18.02;;;10.88;;
76320;SDS011;65132;52.088;5.402;2023-05-07T09:17:40;17.75;;;10.65;;
76320;SDS011;65132;52.088;5.402;2023-05-07T09:20:07;17.88;;;10.55;;
76320;SDS011;65132;52.088;5.402;2023-05-07T09:22:37;19.30;;;11.50;;
76320;SDS011;65132;52.088;5.402;2023-05-07T09:25:08;19.45;;;11.70;;
76320;SDS011;65132;52.088;5.402;2023-05-07T09:27:35;17.08;;;10.73;;
76320;SDS011;65132;52.088;5.402;2023-05-07T09:30:07;20.80;;;11.65;;
76320;SDS011;65132;52.088;5.402;2023-05-07T09:32:37;18.50;;;12.02;;
76320;SDS011;65132;52.088;5.402;2023-05-07T09:35:04;18.50;;;12.07;;
76320;SDS011;65132;52.088;5.402;2023-05-07T09:40:01;22.33;;;13.68;;
76320;SDS011;65132;52.088;5.402;2023-05-07T09:42:27;21.02;;;13.52;;
76320;SDS011;65132;52.088;5.402;2023-05-07T09:44:54;20.20;;;13.43;;
76320;SDS011;65132;52.088;5.402;2023-05-07T09:47:23;19.48;;;12.82;;
76320;SDS011;65132;52.088;5.402;2023-05-07T09:49:55;19.20;;;12.43;;
76320;SDS011;65132;52.088;5.402;2023-05-07T09:52:21;18.52;;;12.68;;
76320;SDS011;65132;52.088;5.402;2023-05-07T09:54:48;21.38;;;11.90;;
76320;SDS011;65132;52.088;5.402;2023-05-07T09:57:20;21.10;;;12.23;;
76320;SDS011;65132;52.088;5.402;2023-05-07T09:59:52;18.45;;;11.75;;
76320;SDS011;65132;52.088;5.402;2023-05-07T10:02:19;21.10;;;12.00;;
76320;SDS011;65132;52.088;5.402;2023-05-07T10:04:48;21.70;;;12.00;;
76320;SDS011;65132;52.088;5.402;2023-05-07T10:07:16;21.77;;;12.75;;
76320;SDS011;65132;52.088;5.402;2023-05-07T10:09:44;18.05;;;11.63;;
76320;SDS011;65132;52.088;5.402;2023-05-07T10:12:10;17.23;;;10.90;;
76320;SDS011;65132;52.088;5.402;2023-05-07T10:14:41;18.13;;;10.80;;
76320;SDS011;65132;52.088;5.402;2023-05-07T10:17:11;17.42;;;11.32;;
76320;SDS011;65132;52.088;5.402;2023-05-07T10:19:38;18.52;;;11.68;;
76320;SDS011;65132;52.088;5.402;2023-05-07T10:22:05;19.23;;;11.63;;
76320;SDS011;65132;52.088;5.402;2023-05-07T10:24:36;19.55;;;12.27;;
76320;SDS011;65132;52.088;5.402;2023-05-07T10:27:08;18.02;;;12.30;;
76320;SDS011;65132;52.088;5.402;2023-05-07T10:45:35;17.15;;;10.85;;
76320;SDS011;65132;52.088;5.402;2023-05-07T10:48:15;15.52;;;10.05;;
76320;SDS011;65132;52.088;5.402;2023-05-07T10:51:17;18.08;;;11.65;;
76320;SDS011;65132;52.088;5.402;2023-05-07T10:53:41;17.48;;;9.88;;
76320;SDS011;65132;52.088;5.402;2023-05-07T11:12:15;16.55;;;10.35;;
76320;SDS011;65132;52.088;5.402;2023-05-07T11:14:45;15.80;;;10.77;;
76320;SDS011;65132;52.088;5.402;2023-05-07T11:17:15;18.30;;;10.73;;
76320;SDS011;65132;52.088;5.402;2023-05-07T11:25:08;15.07;;;10.23;;
76320;SDS011;65132;52.088;5.402;2023-05-07T11:27:34;15.88;;;10.20;;
76320;SDS011;65132;52.088;5.402;2023-05-07T11:30:03;16.65;;;11.10;;
76320;SDS011;65132;52.088;5.402;2023-05-07T11:32:30;15.55;;;10.05;;
76320;SDS011;65132;52.088;5.402;2023-05-07T11:34:58;15.20;;;10.45;;
76320;SDS011;65132;52.088;5.402;2023-05-07T11:37:25;16.63;;;9.82;;
76320;SDS011;65132;52.088;5.402;2023-05-07T11:40:02;14.18;;;10.43;;
76320;SDS011;65132;52.088;5.402;2023-05-07T11:42:29;15.18;;;10.80;;
76320;SDS011;65132;52.088;5.402;2023-05-07T11:44:55;14.70;;;10.10;;
76320;SDS011;65132;52.088;5.402;2023-05-07T11:47:24;16.15;;;9.65;;
76320;SDS011;65132;52.088;5.402;2023-05-07T11:49:53;19.00;;;11.43;;
76320;SDS011;65132;52.088;5.402;2023-05-07T11:52:23;14.75;;;10.73;;
76320;SDS011;65132;52.088;5.402;2023-05-07T11:54:56;17.17;;;11.40;;
76320;SDS011;65132;52.088;5.402;2023-05-07T11:57:23;14.23;;;11.25;;
76320;SDS011;65132;52.088;5.402;2023-05-07T11:59:56;17.13;;;11.20;;
76320;SDS011;65132;52.088;5.402;2023-05-07T12:02:23;13.32;;;9.60;;
76320;SDS011;65132;52.088;5.402;2023-05-07T12:04:49;13.50;;;9.15;;
76320;SDS011;65132;52.088;5.402;2023-05-07T12:07:20;14.55;;;9.55;;
76320;SDS011;65132;52.088;5.402;2023-05-07T12:09:48;12.95;;;8.75;;
76320;SDS011;65132;52.088;5.402;2023-05-07T12:12:17;15.75;;;10.20;;
76320;SDS011;65132;52.088;5.402;2023-05-07T12:14:45;11.32;;;7.15;;
76320;SDS011;65132;52.088;5.402;2023-05-07T12:17:36;9.88;;;6.30;;
76320;SDS011;65132;52.088;5.402;2023-05-07T12:20:11;9.65;;;5.60;;
76320;SDS011;65132;52.088;5.402;2023-05-07T12:22:37;7.97;;;4.95;;
76320;SDS011;65132;52.088;5.402;2023-05-07T12:25:04;10.32;;;6.00;;
76320;SDS011;65132;52.088;5.402;2023-05-07T12:27:30;10.98;;;6.07;;
76320;SDS011;65132;52.088;5.402;2023-05-07T12:29:57;9.88;;;6.57;;
76320;SDS011;65132;52.088;5.402;2023-05-07T12:32:24;8.57;;;5.30;;
76320;SDS011;65132;52.088;5.402;2023-05-07T12:34:53;8.40;;;6.13;;
76320;SDS011;65132;52.088;5.402;2023-05-07T12:37:23;10.52;;;6.20;;
76320;SDS011;65132;52.088;5.402;2023-05-07T12:40:03;7.63;;;6.03;;
76320;SDS011;65132;52.088;5.402;2023-05-07T12:42:40;8.13;;;4.97;;
76320;SDS011;65132;52.088;5.402;2023-05-07T12:45:10;8.25;;;4.15;;
76320;SDS011;65132;52.088;5.402;2023-05-07T12:47:38;6.18;;;4.18;;
76320;SDS011;65132;52.088;5.402;2023-05-07T12:50:05;8.55;;;4.40;;
76320;SDS011;65132;52.088;5.402;2023-05-07T12:52:33;6.72;;;4.55;;
76320;SDS011;65132;52.088;5.402;2023-05-07T12:55:07;7.30;;;4.97;;
76320;SDS011;65132;52.088;5.402;2023-05-07T12:57:43;7.88;;;4.30;;
76320;SDS011;65132;52.088;5.402;2023-05-07T13:00:14;7.00;;;4.10;;
76320;SDS011;65132;52.088;5.402;2023-05-07T13:02:43;8.95;;;5.05;;
76320;SDS011;65132;52.088;5.402;2023-05-07T13:05:12;6.13;;;3.85;;
76320;SDS011;65132;52.088;5.402;2023-05-07T13:07:39;6.95;;;4.43;;
76320;SDS011;65132;52.088;5.402;2023-05-07T13:10:09;7.57;;;4.95;;
76320;SDS011;65132;52.088;5.402;2023-05-07T13:12:43;8.18;;;4.90;;
76320;SDS011;65132;52.088;5.402;2023-05-07T13:15:09;9.60;;;5.00;;
76320;SDS011;65132;52.088;5.402;2023-05-07T13:17:36;6.97;;;5.60;;
76320;SDS011;65132;52.088;5.402;2023-05-07T13:20:02;7.57;;;5.20;;
76320;SDS011;65132;52.088;5.402;2023-05-07T13:22:29;9.48;;;4.93;;
76320;SDS011;65132;52.088;5.402;2023-05-07T13:24:55;11.05;;;6.35;;
76320;SDS011;65132;52.088;5.402;2023-05-07T13:27:22;9.35;;;6.60;;
76320;SDS011;65132;52.088;5.402;2023-05-07T13:29:48;9.82;;;6.50;;
76320;SDS011;65132;52.088;5.402;2023-05-07T13:32:14;12.45;;;8.18;;
76320;SDS011;65132;52.088;5.402;2023-05-07T13:34:41;10.43;;;7.07;;
76320;SDS011;65132;52.088;5.402;2023-05-07T13:37:07;11.98;;;7.65;;
76320;SDS011;65132;52.088;5.402;2023-05-07T13:39:37;13.15;;;7.78;;
76320;SDS011;65132;52.088;5.402;2023-05-07T13:42:03;13.85;;;8.65;;
76320;SDS011;65132;52.088;5.402;2023-05-07T13:44:29;14.57;;;8.85;;
76320;SDS011;65132;52.088;5.402;2023-05-07T13:46:56;14.05;;;8.07;;
76320;SDS011;65132;52.088;5.402;2023-05-07T13:49:22;14.32;;;9.57;;
76320;SDS011;65132;52.088;5.402;2023-05-07T13:51:51;12.95;;;9.07;;
76320;SDS011;65132;52.088;5.402;2023-05-07T13:54:19;15.93;;;10.05;;
76320;SDS011;65132;52.088;5.402;2023-05-07T13:56:45;14.75;;;10.52;;
76320;SDS011;65132;52.088;5.402;2023-05-07T13:59:15;15.32;;;9.75;;
76320;SDS011;65132;52.088;5.402;2023-05-07T14:01:45;14.82;;;9.82;;
76320;SDS011;65132;52.088;5.402;2023-05-07T14:04:11;16.17;;;9.93;;
76320;SDS011;65132;52.088;5.402;2023-05-07T14:06:39;18.23;;;10.90;;
76320;SDS011;65132;52.088;5.402;2023-05-07T14:09:06;16.17;;;10.48;;
76320;SDS011;65132;52.088;5.402;2023-05-07T14:11:34;14.63;;;10.63;;
76320;SDS011;65132;52.088;5.402;2023-05-07T14:14:04;17.38;;;10.13;;
76320;SDS011;65132;52.088;5.402;2023-05-07T14:16:30;15.60;;;10.63;;
76320;SDS011;65132;52.088;5.402;2023-05-07T14:18:56;17.20;;;10.43;;
76320;SDS011;65132;52.088;5.402;2023-05-07T14:21:24;20.27;;;11.05;;
76320;SDS011;65132;52.088;5.402;2023-05-07T14:23:54;18.58;;;11.65;;
76320;SDS011;65132;52.088;5.402;2023-05-07T14:26:21;19.63;;;11.35;;
76320;SDS011;65132;52.088;5.402;2023-05-07T14:28:47;15.13;;;9.45;;
76320;SDS011;65132;52.088;5.402;2023-05-07T14:31:13;15.13;;;9.95;;
76320;SDS011;65132;52.088;5.402;2023-05-07T14:33:40;13.93;;;9.13;;
76320;SDS011;65132;52.088;5.402;2023-05-07T14:36:07;13.98;;;8.98;;
76320;SDS011;65132;52.088;5.402;2023-05-07T14:38:33;15.95;;;9.80;;
76320;SDS011;65132;52.088;5.402;2023-05-07T14:41:00;13.20;;;9.48;;
76320;SDS011;65132;52.088;5.402;2023-05-07T14:43:30;16.88;;;9.50;;
76320;SDS011;65132;52.088;5.402;2023-05-07T14:46:12;17.52;;;10.57;;
76320;SDS011;65132;52.088;5.402;2023-05-07T14:48:38;14.90;;;9.35;;
76320;SDS011;65132;52.088;5.402;2023-05-07T14:51:04;13.10;;;8.93;;
76320;SDS011;65132;52.088;5.402;2023-05-07T14:53:30;14.75;;;9.40;;
76320;SDS011;65132;52.088;5.402;2023-05-07T14:55:57;15.77;;;9.52;;
76320;SDS011;65132;52.088;5.402;2023-05-07T14:58:23;14.82;;;9.27;;
76320;SDS011;65132;52.088;5.402;2023-05-07T15:00:49;17.48;;;8.90;;
76320;SDS011;65132;52.088;5.402;2023-05-07T15:03:17;13.45;;;8.80;;
76320;SDS011;65132;52.088;5.402;2023-05-07T15:05:43;14.27;;;9.02;;
76320;SDS011;65132;52.088;5.402;2023-05-07T15:08:15;15.63;;;10.45;;
76320;SDS011;65132;52.088;5.402;2023-05-07T15:10:43;17.05;;;10.68;;
76320;SDS011;65132;52.088;5.402;2023-05-07T15:13:09;16.42;;;11.00;;
76320;SDS011;65132;52.088;5.402;2023-05-07T15:15:41;15.25;;;10.30;;